Time;durP1;ratioP1;P1;durP2;ratioP2;P2;SDS_P1;SDS_P2;PMS_P1;PMS_P2;Temp;Humidity;BMP_temperature;BMP_pressure;BME280_temperature;BME280_humidity;BME280_pressure;Samples;Min_cycle;Max_cycle;Signal;HPM_P1;HPM_P2
2023/08/06 00:00:21;;;;;;;1999.90;999.90;;;15.00;99.90;;;;;;5057080;28;20119;-73
2023/08/06 00:02:47;;;;;;;1999.90;999.90;;;15.00;99.90;;;;;;5073919;28;20050;-73
2023/08/06 00:05:13;;;;;;;1999.90;999.90;;;15.00;99.90;;;;;;5039614;28;20040;-73
2023/08/06 00:07:39;;;;;;;1999.90;999.90;;;15.00;99.90;;;;;;5073819;28;20080;-73
2023/08/06 00:10:05;;;;;;;1999.90;999.90;;;15.00;99.90;;;;;;5074307;28;20051;-73
2023/08/06 00:12:30;;;;;;;1999.90;999.90;;;14.90;99.90;;;;;;5073929;28;20484;-73
2023/08/06 00:14:56;;;;;;;1999.90;999.90;;;15.00;99.90;;;;;;5056080;28;20052;-74
2023/08/06 00:17:22;;;;;;;1999.90;999.90;;;15.00;99.90;;;;;;5055990;28;20512;-73
2023/08/06 00:19:47;;;;;;;1999.90;999.90;;;14.90;99.90;;;;;;5056132;28;20045;-73
2023/08/06 00:22:13;;;;;;;1999.90;999.90;;;14.90;99.90;;;;;;5073946;28;20058;-73
2023/08/06 00:24:39;;;;;;;1999.90;999.90;;;14.90;99.90;;;;;;5055399;28;20070;-73
2023/08/06 00:27:05;;;;;;;1999.90;999.90;;;14.90;99.90;;;;;;5039221;28;20052;-73
2023/08/06 00:29:30;;;;;;;1999.90;999.90;;;14.90;99.90;;;;;;5073805;28;20462;-73
2023/08/06 00:31:56;;;;;;;1999.90;999.90;;;14.90;99.90;;;;;;5073493;28;20040;-73
2023/08/06 00:34:22;;;;;;;1999.90;999.90;;;14.90;99.90;;;;;;5074027;28;20045;-73
2023/08/06 00:36:47;;;;;;;1999.90;999.90;;;15.00;99.90;;;;;;5056395;28;20382;-73
2023/08/06 00:39:13;;;;;;;1999.90;999.90;;;15.00;99.90;;;;;;5074261;28;20045;-73
2023/08/06 00:41:39;;;;;;;1999.90;999.90;;;14.90;99.90;;;;;;5073922;28;20136;-73
2023/08/06 00:44:05;;;;;;;1999.90;999.90;;;14.90;99.90;;;;;;5056581;28;20094;-73
2023/08/06 00:46:32;;;;;;;1999.90;999.90;;;14.90;99.90;;;;;;5022716;28;20044;-73
2023/08/06 00:48:58;;;;;;;1999.90;999.90;;;14.90;99.90;;;;;;5073330;28;20052;-73
2023/08/06 00:51:24;;;;;;;1999.90;999.90;;;15.00;99.90;;;;;;5073393;28;20272;-73
2023/08/06 00:53:52;;;;;;;1999.90;999.90;;;15.00;99.90;;;;;;5039802;28;20048;-73
2023/08/06 00:56:18;;;;;;;1999.90;999.90;;;15.00;99.90;;;;;;5073933;28;20086;-73
2023/08/06 00:58:44;;;;;;;1999.90;999.90;;;15.00;99.90;;;;;;5055577;28;20472;-74
2023/08/06 01:01:10;;;;;;;1999.90;999.90;;;15.00;99.90;;;;;;5055323;28;20492;-73
2023/08/06 01:03:36;;;;;;;1999.90;999.90;;;15.00;99.90;;;;;;5073516;28;20048;-74
2023/08/06 01:06:02;;;;;;;1999.90;999.90;;;14.90;99.90;;;;;;5056143;28;20452;-74
2023/08/06 01:08:58;;;;;;;1999.90;999.90;;;14.90;99.90;;;;;;5073709;28;20052;-74
2023/08/06 01:12:01;;;;;;;1999.90;999.90;;;14.90;99.90;;;;;;5073184;28;20175;-74
2023/08/06 01:14:35;;;;;;;1999.90;999.90;;;14.90;99.90;;;;;;5072822;28;20496;-74
2023/08/06 01:17:02;;;;;;;1999.90;999.90;;;14.90;99.90;;;;;;5055150;28;20052;-74
2023/08/06 01:19:28;;;;;;;1999.90;999.90;;;14.90;99.90;;;;;;5073717;28;20121;-74
2023/08/06 01:21:54;;;;;;;1999.90;999.90;;;14.90;99.90;;;;;;5073371;28;20060;-73
2023/08/06 01:24:20;;;;;;;1999.90;999.90;;;14.90;99.90;;;;;;5073019;28;20399;-73
2023/08/06 01:26:54;;;;;;;1999.90;999.90;;;15.00;99.90;;;;;;5055593;28;20131;-73
2023/08/06 01:29:44;;;;;;;1999.90;999.90;;;14.90;99.90;;;;;;5073074;28;20396;-73
2023/08/06 01:32:14;;;;;;;1999.90;999.90;;;14.90;99.90;;;;;;5075075;28;20045;-73
2023/08/06 01:34:42;;;;;;;1999.90;999.90;;;14.90;99.90;;;;;;5058918;28;20045;-73
2023/08/06 01:37:08;;;;;;;1999.90;999.90;;;14.90;99.90;;;;;;5076841;28;20048;-73
2023/08/06 01:39:34;;;;;;;1999.90;999.90;;;14.90;99.90;;;;;;5058950;28;20056;-73
2023/08/06 01:42:00;;;;;;;1999.90;999.90;;;14.90;99.90;;;;;;5076556;28;20048;-73
2023/08/06 01:44:26;;;;;;;1999.90;999.90;;;14.90;99.90;;;;;;5077038;28;20048;-73
2023/08/06 01:46:51;;;;;;;1999.90;999.90;;;14.90;99.90;;;;;;5076455;28;20040;-73
2023/08/06 01:49:17;;;;;;;1999.90;999.90;;;14.90;99.90;;;;;;5076387;28;20104;-73
2023/08/06 01:51:43;;;;;;;1999.90;999.90;;;14.90;99.90;;;;;;5076427;28;20119;-73
2023/08/06 01:54:08;;;;;;;1999.90;999.90;;;14.90;99.90;;;;;;5076331;28;20091;-74
2023/08/06 01:56:34;;;;;;;1999.90;999.90;;;14.90;99.90;;;;;;5058420;28;20071;-73
2023/08/06 01:59:00;;;;;;;1999.90;999.90;;;14.90;99.90;;;;;;5076249;28;20131;-73
2023/08/06 02:01:25;;;;;;;1999.90;999.90;;;14.90;99.90;;;;;;5059089;28;20428;-73
2023/08/06 02:03:51;;;;;;;1999.90;999.90;;;14.90;99.90;;;;;;5077027;28;20136;-74
2023/08/06 02:06:17;;;;;;;1999.90;999.90;;;14.90;99.90;;;;;;5058748;28;20056;-73
2023/08/06 02:08:42;;;;;;;1999.90;999.90;;;14.90;99.90;;;;;;5075748;28;20050;-74
2023/08/06 02:11:08;;;;;;;1999.90;999.90;;;14.90;99.90;;;;;;5058670;28;20087;-74
2023/08/06 02:13:34;;;;;;;1999.90;999.90;;;14.90;99.90;;;;;;5075948;28;20052;-73
2023/08/06 02:15:59;;;;;;;1999.90;999.90;;;14.90;99.90;;;;;;5057975;28;20053;-73
2023/08/06 02:18:25;;;;;;;1999.90;999.90;;;14.90;99.90;;;;;;5058014;28;20472;-74
2023/08/06 02:20:58;;;;;;;1999.90;999.90;;;14.90;99.90;;;;;;5058060;28;20504;-74
2023/08/06 02:23:25;;;;;;;1999.90;999.90;;;14.90;99.90;;;;;;5075801;28;20059;-74
2023/08/06 02:26:01;;;;;;;1999.90;999.90;;;14.90;99.90;;;;;;5075635;28;20467;-73
2023/08/06 02:28:27;;;;;;;1999.90;999.90;;;14.90;99.90;;;;;;5058338;28;20117;-73
2023/08/06 02:30:53;;;;;;;1999.90;999.90;;;15.00;99.90;;;;;;5057443;28;20487;-74
2023/08/06 02:33:19;;;;;;;1999.90;999.90;;;15.00;99.90;;;;;;5058290;28;20040;-73
2023/08/06 02:35:44;;;;;;;1999.90;999.90;;;15.00;99.90;;;;;;5057640;28;20400;-74
2023/08/06 02:38:10;;;;;;;1999.90;999.90;;;15.00;99.90;;;;;;5041160;28;20480;-73
2023/08/06 02:40:36;;;;;;;1999.90;999.90;;;15.00;99.90;;;;;;5075977;28;20091;-74
2023/08/06 02:43:02;;;;;;;1999.90;999.90;;;15.00;99.90;;;;;;5040418;28;20052;-74
2023/08/06 02:45:28;;;;;;;1999.90;999.90;;;15.00;99.90;;;;;;5076184;28;20475;-74
2023/08/06 02:47:54;;;;;;;1999.90;999.90;;;15.00;99.90;;;;;;5058476;28;20060;-74
2023/08/06 02:50:19;;;;;;;1999.90;999.90;;;15.00;99.90;;;;;;5075279;28;20056;-73
2023/08/06 02:52:45;;;;;;;1999.90;999.90;;;15.00;99.90;;;;;;5075192;28;20043;-73
2023/08/06 02:55:11;;;;;;;1999.90;999.90;;;15.00;99.90;;;;;;5057153;28;20071;-76
2023/08/06 02:57:36;;;;;;;1999.90;999.90;;;15.00;99.90;;;;;;5075134;28;20050;-74
2023/08/06 03:00:02;;;;;;;1999.90;999.90;;;15.00;99.90;;;;;;5057474;28;20094;-73
2023/08/06 03:02:28;;;;;;;1999.90;999.90;;;15.00;99.90;;;;;;5057955;28;20084;-73
2023/08/06 03:04:54;;;;;;;1999.90;999.90;;;15.00;99.90;;;;;;5040799;28;20163;-72
2023/08/06 03:07:19;;;;;;;1999.90;999.90;;;15.00;99.90;;;;;;5074941;28;20437;-72
2023/08/06 03:09:45;;;;;;;1999.90;999.90;;;15.00;99.90;;;;;;5040613;28;20459;-72
2023/08/06 03:12:11;;;;;;;1999.90;999.90;;;15.00;99.90;;;;;;5057023;28;20098;-74
2023/08/06 03:14:36;;;;;;;1999.90;999.90;;;15.00;99.90;;;;;;5057537;28;20105;-73
2023/08/06 03:17:02;;;;;;;1999.90;999.90;;;15.00;99.90;;;;;;5074626;28;20041;-74
2023/08/06 03:19:28;;;;;;;1999.90;999.90;;;15.00;99.90;;;;;;5074718;28;20052;-74
2023/08/06 03:21:54;;;;;;;1999.90;999.90;;;15.00;99.90;;;;;;5056578;28;20072;-73
2023/08/06 03:24:20;;;;;;;1999.90;999.90;;;15.00;99.90;;;;;;5056957;28;20049;-73
2023/08/06 03:26:45;;;;;;;1999.90;999.90;;;15.00;99.90;;;;;;5074533;28;20047;-74
2023/08/06 03:29:11;;;;;;;1999.90;999.90;;;15.00;99.90;;;;;;5074453;28;20048;-73
2023/08/06 03:31:37;;;;;;;1999.90;999.90;;;15.00;99.90;;;;;;5040473;28;20044;-73
2023/08/06 03:34:02;;;;;;;1999.90;999.90;;;15.00;99.90;;;;;;5057109;28;20040;-74
2023/08/06 03:36:28;;;;;;;1999.90;999.90;;;15.00;99.90;;;;;;5074527;28;20518;-74
2023/08/06 03:38:54;;;;;;;1999.90;999.90;;;15.00;99.90;;;;;;5074669;28;20044;-74
2023/08/06 03:41:19;;;;;;;1999.90;999.90;;;15.00;99.90;;;;;;5056533;28;20044;-73
2023/08/06 03:43:45;;;;;;;1999.90;999.90;;;15.00;99.90;;;;;;5074202;28;20048;-74
2023/08/06 03:46:11;;;;;;;1999.90;999.90;;;15.00;99.90;;;;;;5040695;28;20083;-73
2023/08/06 03:48:36;;;;;;;1999.90;999.90;;;15.00;99.90;;;;;;5074406;28;20041;-74
2023/08/06 03:51:02;;;;;;;1999.90;999.90;;;15.00;99.90;;;;;;5074619;28;20049;-73
2023/08/06 03:53:27;;;;;;;1999.90;999.90;;;15.00;99.90;;;;;;5056967;28;20045;-73
2023/08/06 03:55:55;;;;;;;1999.90;999.90;;;15.00;99.90;;;;;;5073905;28;20123;-74
2023/08/06 03:58:21;;;;;;;1999.90;999.90;;;15.00;99.90;;;;;;5073957;28;20048;-73
2023/08/06 04:00:46;;;;;;;1999.90;999.90;;;15.00;99.90;;;;;;5057091;28;20072;-74
2023/08/06 04:03:12;;;;;;;1999.90;999.90;;;15.00;99.90;;;;;;5074436;28;20044;-74
2023/08/06 04:05:38;;;;;;;1999.90;999.90;;;15.00;99.90;;;;;;5056349;28;20365;-73
2023/08/06 04:08:04;;;;;;;1999.90;999.90;;;15.00;99.90;;;;;;5056223;28;20053;-73
2023/08/06 04:10:29;;;;;;;1999.90;999.90;;;15.00;99.90;;;;;;5056193;28;20036;-73
2023/08/06 04:12:55;;;;;;;1999.90;999.90;;;15.00;99.90;;;;;;5056665;28;20394;-73
2023/08/06 04:15:20;;;;;;;1999.90;999.90;;;15.00;99.90;;;;;;5056352;28;20387;-74
2023/08/06 04:17:46;;;;;;;1999.90;999.90;;;15.00;99.90;;;;;;5074028;28;20040;-73
2023/08/06 04:20:12;;;;;;;1999.90;999.90;;;15.00;99.90;;;;;;5055808;28;20040;-74
2023/08/06 04:22:37;;;;;;;1999.90;999.90;;;15.00;99.90;;;;;;5073713;28;20067;-73
2023/08/06 04:25:03;;;;;;;1999.90;999.90;;;15.00;99.90;;;;;;5074186;28;20045;-73
2023/08/06 04:27:29;;;;;;;1999.90;999.90;;;15.00;99.90;;;;;;5074127;28;20049;-73
2023/08/06 04:29:55;;;;;;;1999.90;999.90;;;15.00;99.90;;;;;;5073581;28;20078;-73
2023/08/06 04:32:20;;;;;;;1999.90;999.90;;;15.00;99.90;;;;;;5073274;28;20059;-73
2023/08/06 04:34:47;;;;;;;1999.90;999.90;;;15.00;99.90;;;;;;5073496;28;20045;-73
2023/08/06 04:37:13;;;;;;;1999.90;999.90;;;15.00;99.90;;;;;;5056385;28;20143;-73
2023/08/06 04:39:39;;;;;;;1999.90;999.90;;;15.00;99.90;;;;;;5074354;28;20504;-72
2023/08/06 04:42:05;;;;;;;1999.90;999.90;;;15.00;99.90;;;;;;5073535;28;20052;-73
2023/08/06 04:44:31;;;;;;;1999.90;999.90;;;15.00;99.90;;;;;;5055736;28;20076;-73
2023/08/06 04:46:56;;;;;;;1999.90;999.90;;;15.00;99.90;;;;;;5056027;28;20088;-73
2023/08/06 04:49:22;;;;;;;1999.90;999.90;;;15.00;99.90;;;;;;5073079;28;20052;-73
2023/08/06 04:51:48;;;;;;;1999.90;999.90;;;15.10;99.90;;;;;;5073443;28;20044;-73
2023/08/06 04:54:14;;;;;;;1999.90;999.90;;;15.10;99.90;;;;;;5055467;28;20049;-74
2023/08/06 04:56:40;;;;;;;1999.90;999.90;;;15.10;99.90;;;;;;5073256;28;20080;-73
2023/08/06 04:59:05;;;;;;;1999.90;999.90;;;15.10;99.90;;;;;;5073275;28;20056;-74
2023/08/06 05:01:32;;;;;;;1999.90;999.90;;;15.10;99.90;;;;;;5055405;28;20049;-73
2023/08/06 05:03:57;;;;;;;1999.90;999.90;;;15.10;99.90;;;;;;5055590;28;20137;-74
2023/08/06 05:06:23;;;;;;;1999.90;999.90;;;15.10;99.90;;;;;;5074070;28;20086;-74
2023/08/06 05:08:49;;;;;;;1999.90;999.90;;;15.10;99.90;;;;;;5059612;28;20127;-74
2023/08/06 05:11:14;;;;;;;1999.90;999.90;;;15.20;99.90;;;;;;5059344;28;20060;-74
2023/08/06 05:13:40;;;;;;;1999.90;999.90;;;15.20;99.90;;;;;;5059417;28;20063;-74
2023/08/06 05:16:06;;;;;;;1999.90;999.90;;;15.20;99.90;;;;;;5059196;28;20043;-74
2023/08/06 05:18:31;;;;;;;1999.90;999.90;;;15.20;99.90;;;;;;5076674;28;20071;-74
2023/08/06 05:20:57;;;;;;;1999.90;999.90;;;15.20;99.90;;;;;;5076587;28;20056;-74
2023/08/06 05:23:23;;;;;;;1999.90;999.90;;;15.20;99.90;;;;;;5043441;28;20055;-74
2023/08/06 05:25:48;;;;;;;1999.90;999.90;;;15.10;99.90;;;;;;5077397;28;20047;-75
2023/08/06 05:28:14;;;;;;;1999.90;999.90;;;15.20;99.90;;;;;;5059027;28;20052;-74
2023/08/06 05:30:40;;;;;;;1999.90;999.90;;;15.20;99.90;;;;;;5077103;28;20040;-74
2023/08/06 05:33:06;;;;;;;1999.90;999.90;;;15.20;99.90;;;;;;5076747;28;20049;-74
2023/08/06 05:35:32;;;;;;;1999.90;999.90;;;15.20;99.90;;;;;;5076626;28;20137;-74
2023/08/06 05:37:57;;;;;;;1999.90;999.90;;;15.20;99.90;;;;;;5077221;28;20044;-74
2023/08/06 05:40:25;;;;;;;1999.90;999.90;;;15.20;99.90;;;;;;5076585;28;20102;-74
2023/08/06 05:42:54;;;;;;;1999.90;999.90;;;15.20;99.90;;;;;;5059500;28;20044;-73
2023/08/06 05:45:20;;;;;;;1999.90;999.90;;;15.30;99.90;;;;;;5076477;28;20128;-74
2023/08/06 05:47:48;;;;;;;1999.90;999.90;;;15.30;99.90;;;;;;5058748;28;20131;-74
2023/08/06 05:50:13;;;;;;;1999.90;999.90;;;15.30;99.90;;;;;;5076461;28;20049;-73
2023/08/06 05:52:39;;;;;;;1999.90;999.90;;;15.30;99.90;;;;;;5058790;28;20140;-75
2023/08/06 05:55:05;;;;;;;1999.90;999.90;;;15.30;99.90;;;;;;5058910;28;20052;-74
2023/08/06 05:57:31;;;;;;;1999.90;999.90;;;15.30;99.90;;;;;;5041604;28;20082;-73
2023/08/06 05:59:57;;;;;;;1999.90;999.90;;;15.30;99.90;;;;;;5058547;28;20044;-75
2023/08/06 06:02:22;;;;;;;1999.90;999.90;;;15.30;99.90;;;;;;5058201;28;20044;-75
2023/08/06 06:04:48;;;;;;;1999.90;999.90;;;15.40;99.90;;;;;;5059245;28;20051;-75
2023/08/06 06:07:14;;;;;;;1999.90;999.90;;;15.40;99.90;;;;;;5058233;28;20405;-75
2023/08/06 06:09:40;;;;;;;1999.90;999.90;;;15.40;99.90;;;;;;5058241;28;20097;-74
2023/08/06 06:12:06;;;;;;;1999.90;999.90;;;15.50;99.90;;;;;;5057869;28;20111;-74
2023/08/06 06:14:32;;;;;;;1999.90;999.90;;;15.50;99.90;;;;;;5075677;28;20555;-74
2023/08/06 06:16:59;;;;;;;1999.90;999.90;;;15.60;99.90;;;;;;5075896;28;20128;-74
2023/08/06 06:19:25;;;;;;;1999.90;999.90;;;15.60;99.90;;;;;;5040434;28;20045;-74
2023/08/06 06:21:51;;;;;;;1999.90;999.90;;;15.60;99.90;;;;;;5058043;28;20052;-74
2023/08/06 06:24:16;;;;;;;1999.90;999.90;;;15.70;99.90;;;;;;5076027;28;20148;-74
2023/08/06 06:26:42;;;;;;;1999.90;999.90;;;15.70;99.90;;;;;;5075729;28;20044;-73
2023/08/06 06:29:08;;;;;;;1999.90;999.90;;;15.70;99.90;;;;;;5058040;28;20490;-74
2023/08/06 06:31:33;;;;;;;1999.90;999.90;;;15.80;99.90;;;;;;5041617;28;20045;-74
2023/08/06 06:33:59;;;;;;;1999.90;999.90;;;15.80;99.90;;;;;;5075662;28;20369;-74
2023/08/06 06:36:25;;;;;;;1999.90;999.90;;;15.90;99.90;;;;;;5075466;28;20036;-74
2023/08/06 06:38:51;;;;;;;1999.90;999.90;;;15.90;99.90;;;;;;5076402;28;20453;-72
2023/08/06 06:41:16;;;;;;;1999.90;999.90;;;15.90;99.90;;;;;;5057637;28;20052;-75
2023/08/06 06:43:42;;;;;;;1999.90;999.90;;;16.00;99.90;;;;;;5057593;28;20040;-73
2023/08/06 06:46:08;;;;;;;1999.90;999.90;;;16.00;99.90;;;;;;5075383;28;20079;-74
2023/08/06 06:48:33;;;;;;;1999.90;999.90;;;16.10;99.90;;;;;;5057697;28;20127;-73
2023/08/06 06:51:00;;;;;;;1999.90;999.90;;;16.10;99.90;;;;;;5075008;28;20049;-74
2023/08/06 06:53:28;;;;;;;1999.90;999.90;;;16.10;99.90;;;;;;5057661;28;20053;-73
2023/08/06 06:56:02;;;;;;;1999.90;999.90;;;16.10;99.90;;;;;;5075006;28;20569;-73
2023/08/06 06:58:28;;;;;;;1999.90;999.90;;;16.10;99.90;;;;;;5075455;28;20527;-73
2023/08/06 07:00:53;;;;;;;1999.90;999.90;;;16.20;99.90;;;;;;5075550;28;20131;-74
2023/08/06 07:03:20;;;;;;;1999.90;999.90;;;16.20;99.90;;;;;;5057601;28;20040;-73
2023/08/06 07:05:46;;;;;;;1999.90;999.90;;;16.20;99.90;;;;;;5075145;28;20037;-73
2023/08/06 07:08:12;;;;;;;1999.90;999.90;;;16.20;99.90;;;;;;5075710;28;20063;-73
2023/08/06 07:10:38;;;;;;;1999.90;999.90;;;16.30;99.90;;;;;;5075584;28;20384;-73
2023/08/06 07:13:03;;;;;;;1999.90;999.90;;;16.30;99.90;;;;;;5074716;28;20048;-73
2023/08/06 07:15:29;;;;;;;1999.90;999.90;;;16.30;99.90;;;;;;5041598;28;20045;-73
2023/08/06 07:17:55;;;;;;;1999.90;999.90;;;16.30;99.90;;;;;;5075413;28;20056;-73
2023/08/06 07:20:20;;;;;;;1999.90;999.90;;;16.40;99.90;;;;;;5057897;28;20083;-74
2023/08/06 07:22:46;;;;;;;1999.90;999.90;;;16.40;99.90;;;;;;5058038;28;20055;-74
2023/08/06 07:25:12;;;;;;;1999.90;999.90;;;16.40;99.90;;;;;;5075576;28;20059;-73
2023/08/06 07:27:38;;;;;;;1999.90;999.90;;;16.50;99.90;;;;;;5074665;28;20535;-72
2023/08/06 07:30:05;;;;;;;1999.90;999.90;;;16.50;99.90;;;;;;5074475;28;20057;-73
2023/08/06 07:32:31;;;;;;;1999.90;999.90;;;16.60;99.90;;;;;;5074693;28;20403;-73
2023/08/06 07:35:00;;;;;;;1999.90;999.90;;;16.60;99.90;;;;;;5074556;28;20052;-72
2023/08/06 07:37:28;;;;;;;1999.90;999.90;;;16.60;99.90;;;;;;5057081;28;20041;-73
2023/08/06 07:39:57;;;;;;;1999.90;999.90;;;16.60;99.90;;;;;;5074502;28;20048;-74
2023/08/06 07:42:23;;;;;;;1999.90;999.90;;;16.60;99.90;;;;;;5057611;28;20048;-72
2023/08/06 07:44:53;;;;;;;1999.90;999.90;;;16.60;99.90;;;;;;5074932;28;20058;-72
2023/08/06 07:47:19;;;;;;;1999.90;999.90;;;16.60;99.90;;;;;;5056669;28;20049;-72
2023/08/06 07:49:45;;;;;;;1999.90;999.90;;;16.60;99.90;;;;;;5073951;28;20048;-73
2023/08/06 07:52:11;;;;;;;1999.90;999.90;;;16.70;99.90;;;;;;5056276;28;20086;-72
2023/08/06 07:54:36;;;;;;;1999.90;999.90;;;16.70;99.90;;;;;;5073811;28;20084;-72
2023/08/06 07:57:02;;;;;;;1999.90;999.90;;;16.70;99.90;;;;;;5074296;28;20483;-73
2023/08/06 07:59:28;;;;;;;1999.90;999.90;;;16.80;99.90;;;;;;5074109;28;20087;-73
2023/08/06 08:01:54;;;;;;;1999.90;999.90;;;16.80;99.90;;;;;;5074187;28;20094;-74
2023/08/06 08:04:20;;;;;;;1999.90;999.90;;;16.80;99.90;;;;;;5073566;28;20048;-74
2023/08/06 08:06:47;;;;;;;1999.90;999.90;;;16.80;99.90;;;;;;5055725;28;20105;-73
2023/08/06 08:09:13;;;;;;;1999.90;999.90;;;16.90;99.90;;;;;;5074404;28;20523;-73
2023/08/06 08:11:40;;;;;;;1999.90;999.90;;;16.90;99.90;;;;;;5055835;28;20182;-75
2023/08/06 08:14:05;;;;;;;1999.90;999.90;;;16.90;99.90;;;;;;5023222;28;20083;-73
2023/08/06 08:16:31;;;;;;;1999.90;999.90;;;16.90;99.90;;;;;;5073557;28;20476;-74
2023/08/06 08:18:57;;;;;;;1999.90;999.90;;;17.00;99.90;;;;;;5073441;28;20109;-75
2023/08/06 08:21:26;;;;;;;1999.90;999.90;;;17.00;99.90;;;;;;5050796;28;20100;-75
2023/08/06 08:23:52;;;;;;;1999.90;999.90;;;17.10;99.90;;;;;;5055466;28;20052;-73
2023/08/06 08:26:17;;;;;;;1999.90;999.90;;;17.10;99.90;;;;;;5055661;28;20060;-73
2023/08/06 08:28:43;;;;;;;1999.90;999.90;;;17.10;99.90;;;;;;5073369;28;20044;-73
2023/08/06 08:31:11;;;;;;;1999.90;999.90;;;17.10;99.90;;;;;;5073332;28;20044;-73
2023/08/06 08:33:37;;;;;;;1999.90;999.90;;;17.20;99.90;;;;;;5073830;28;20450;-73
2023/08/06 08:36:03;;;;;;;1999.90;999.90;;;17.20;99.90;;;;;;5056194;28;20125;-73
2023/08/06 08:38:29;;;;;;;1999.90;999.90;;;17.30;99.90;;;;;;5073220;28;20077;-74
2023/08/06 08:40:55;;;;;;;1999.90;999.90;;;17.40;99.90;;;;;;5038360;28;20040;-73
2023/08/06 08:43:22;;;;;;;1999.90;999.90;;;17.40;99.90;;;;;;5073944;28;20428;-73
2023/08/06 08:45:51;;;;;;;1999.90;999.90;;;17.50;99.90;;;;;;5056329;28;20415;-73
2023/08/06 08:48:17;;;;;;;1999.90;999.90;;;17.60;99.90;;;;;;5073438;28;20045;-73
2023/08/06 08:50:48;;;;;;;1999.90;999.90;;;17.70;99.90;;;;;;5073655;28;20048;-73
2023/08/06 08:53:15;;;;;;;1999.90;999.90;;;17.70;99.90;;;;;;5073406;28;20141;-73
2023/08/06 08:55:42;;;;;;;1999.90;999.90;;;17.80;99.90;;;;;;5055012;28;20051;-74
2023/08/06 08:58:07;;;;;;;1999.90;999.90;;;17.90;99.90;;;;;;5055640;28;20056;-73
2023/08/06 09:00:35;;;;;;;1999.90;999.90;;;18.00;99.90;;;;;;5055606;28;20047;-75
2023/08/06 09:03:01;;;;;;;1999.90;999.90;;;18.00;99.90;;;;;;5073075;28;20400;-74
2023/08/06 09:05:30;;;;;;;1999.90;999.90;;;18.00;99.90;;;;;;5073016;28;20049;-74
2023/08/06 09:08:04;;;;;;;1999.90;999.90;;;18.00;99.90;;;;;;5072926;28;20048;-74
2023/08/06 09:10:30;;;;;;;1999.90;999.90;;;18.00;99.90;;;;;;5072993;28;20055;-73
2023/08/06 09:12:57;;;;;;;1999.90;999.90;;;18.10;99.90;;;;;;5073450;28;20123;-73
2023/08/06 09:15:27;;;;;;;1999.90;999.90;;;18.10;99.90;;;;;;5072897;28;20083;-74
2023/08/06 09:17:54;;;;;;;1999.90;999.90;;;18.10;99.90;;;;;;5072955;28;20045;-73
2023/08/06 09:20:20;;;;;;;1999.90;999.90;;;18.10;99.90;;;;;;5055085;28;20088;-77
2023/08/06 09:22:47;;;;;;;1999.90;999.90;;;18.10;99.90;;;;;;5072366;28;20068;-73
2023/08/06 09:25:24;;;;;;;1999.90;999.90;;;18.20;99.90;;;;;;5072883;28;20052;-73
2023/08/06 09:27:51;;;;;;;1999.90;999.90;;;18.20;99.90;;;;;;5055022;28;20123;-73
2023/08/06 09:30:30;;;;;;;1999.90;999.90;;;18.20;99.90;;;;;;5073570;28;20072;-72
2023/08/06 09:32:56;;;;;;;1999.90;999.90;;;18.30;99.90;;;;;;5055142;28;20084;-70
2023/08/06 09:35:22;;;;;;;1999.90;999.90;;;18.30;99.90;;;;;;5038661;28;20098;-74
2023/08/06 09:37:48;;;;;;;1999.90;999.90;;;18.30;99.90;;;;;;5054554;28;20037;-74
2023/08/06 09:40:26;;;;;;;1999.90;999.90;;;18.30;99.90;;;;;;5073417;28;20052;-73
2023/08/06 09:42:53;;;;;;;1999.90;999.90;;;18.40;99.90;;;;;;5072031;28;20500;-75
2023/08/06 09:45:19;;;;;;;1999.90;999.90;;;18.40;99.90;;;;;;5072359;28;20048;-74
2023/08/06 09:47:45;;;;;;;1999.90;999.90;;;18.50;99.90;;;;;;5054652;28;20131;-76
2023/08/06 09:50:20;;;;;;;1999.90;999.90;;;18.50;99.90;;;;;;5054821;28;20044;-74
2023/08/06 09:52:51;;;;;;;1999.90;999.90;;;18.60;99.90;;;;;;5056032;28;20049;-75
2023/08/06 09:55:18;;;;;;;1999.90;999.90;;;18.70;99.90;;;;;;5058471;28;20052;-76
2023/08/06 09:57:44;;;;;;;1999.90;999.90;;;18.70;99.90;;;;;;5058735;28;20105;-75
2023/08/06 10:00:11;;;;;;;1999.90;999.90;;;18.70;99.90;;;;;;5058349;28;20134;-75
2023/08/06 10:02:39;;;;;;;1999.90;999.90;;;18.80;99.90;;;;;;5075979;28;20041;-74
2023/08/06 10:05:05;;;;;;;1999.90;999.90;;;18.80;99.90;;;;;;5076211;28;20472;-76
2023/08/06 10:07:31;;;;;;;1999.90;999.90;;;18.80;99.90;;;;;;5076625;28;20036;-74
2023/08/06 10:09:59;;;;;;;1999.90;999.90;;;18.80;99.90;;;;;;5058229;28;20391;-75
2023/08/06 10:12:27;;;;;;;1999.90;999.90;;;18.90;99.90;;;;;;5075691;28;20044;-75
2023/08/06 10:14:56;;;;;;;1999.90;999.90;;;18.90;99.90;;;;;;5058325;28;20184;-74
2023/08/06 10:17:23;;;;;;;1999.90;999.90;;;18.90;99.90;;;;;;5075601;28;20046;-76
2023/08/06 10:19:50;;;;;;;1999.90;999.90;;;18.90;99.90;;;;;;5075659;28;20049;-75
2023/08/06 10:22:19;;;;;;;1999.90;999.90;;;18.90;99.90;;;;;;5075067;28;20052;-77
2023/08/06 10:25:04;;;;;;;1999.90;999.90;;;19.00;99.90;;;;;;5076192;28;20377;-76
2023/08/06 10:27:53;;;;;;;1999.90;999.90;;;19.10;99.90;;;;;;5075568;28;20094;-74
2023/08/06 10:30:33;;;;;;;1999.90;999.90;;;19.10;99.90;;;;;;5041933;28;20102;-74
2023/08/06 10:33:04;;;;;;;1999.90;999.90;;;19.20;99.90;;;;;;5075882;28;20044;-73
2023/08/06 10:35:34;;;;;;;1999.90;999.90;;;19.20;99.90;;;;;;5075184;28;20087;-74
2023/08/06 10:38:08;;;;;;;1999.90;999.90;;;19.20;99.90;;;;;;5075778;28;20076;-74
2023/08/06 10:40:34;;;;;;;1999.90;999.90;;;19.30;99.90;;;;;;5057571;28;20048;-74
2023/08/06 10:43:04;;;;;;;1999.90;999.90;;;19.30;99.90;;;;;;5057512;28;20040;-74
2023/08/06 10:45:33;;;;;;;1999.90;999.90;;;19.40;99.90;;;;;;5075154;28;20052;-73
2023/08/06 10:47:59;;;;;;;1999.90;999.90;;;19.40;99.90;;;;;;5075096;28;20048;-73
2023/08/06 10:50:26;;;;;;;1999.90;999.90;;;19.50;99.90;;;;;;5057296;28;20124;-73
2023/08/06 10:52:52;;;;;;;1999.90;999.90;;;19.50;99.90;;;;;;5057414;28;20052;-73
2023/08/06 10:55:28;;;;;;;1999.90;999.90;;;19.60;99.90;;;;;;5075680;28;20434;-73
2023/08/06 10:57:56;;;;;;;1999.90;999.90;;;19.60;99.90;;;;;;5074734;28;20090;-73
2023/08/06 11:00:23;;;;;;;1999.90;999.90;;;19.70;99.90;;;;;;5074854;28;20127;-72
2023/08/06 11:02:50;;;;;;;1999.90;999.90;;;19.80;99.90;;;;;;5056930;28;20080;-74
2023/08/06 11:05:17;;;;;;;1999.90;999.90;;;19.80;99.90;;;;;;5074177;28;20131;-73
2023/08/06 11:07:43;;;;;;;1999.90;999.90;;;19.80;99.90;;;;;;5074474;28;20514;-73
2023/08/06 11:10:11;;;;;;;1999.90;999.90;;;19.80;99.90;;;;;;5074719;28;20051;-72
2023/08/06 11:12:37;;;;;;;1999.90;999.90;;;19.90;99.90;;;;;;5074861;28;20045;-75
2023/08/06 11:15:04;;;;;;;1999.90;999.90;;;19.90;99.90;;;;;;5056695;28;20401;-74
2023/08/06 11:17:31;;;;;;;1999.90;999.90;;;20.00;99.90;;;;;;5056616;28;20036;-74
2023/08/06 11:20:00;;;;;;;1999.90;999.90;;;20.00;99.90;;;;;;5057547;28;20041;-74
2023/08/06 11:22:26;;;;;;;1999.90;999.90;;;20.10;99.90;;;;;;5074684;28;20057;-75
2023/08/06 11:24:53;;;;;;;1999.90;999.90;;;20.20;99.90;;;;;;5073751;28;20488;-74
2023/08/06 11:27:19;;;;;;;1999.90;999.90;;;20.20;99.90;;;;;;5074728;28;20123;-74
2023/08/06 11:29:45;;;;;;;1999.90;999.90;;;20.20;99.90;;;;;;5074281;28;20523;-74
2023/08/06 11:32:12;;;;;;;1999.90;999.90;;;20.20;99.90;;;;;;5074631;28;20051;-73
2023/08/06 11:34:38;;;;;;;1999.90;999.90;;;20.20;99.90;;;;;;5056467;28;20110;-74
2023/08/06 11:37:05;;;;;;;1999.90;999.90;;;20.10;99.90;;;;;;5056216;28;20045;-73
2023/08/06 11:39:50;;;;;;;1999.90;999.90;;;20.00;99.90;;;;;;5039948;28;20048;-73
2023/08/06 11:42:16;;;;;;;1999.90;999.90;;;20.00;99.90;;;;;;5057416;28;20052;-73
2023/08/06 11:44:45;;;;;;;1999.90;999.90;;;20.10;99.90;;;;;;5056217;28;20070;-73
2023/08/06 11:47:14;;;;;;;1999.90;999.90;;;20.10;99.90;;;;;;5056557;28;20083;-74
2023/08/06 11:49:45;;;;;;;1999.90;999.90;;;20.10;99.90;;;;;;5073912;28;20049;-73
2023/08/06 11:52:26;;;;;;;1999.90;999.90;;;20.10;99.90;;;;;;5073925;28;20048;-74
2023/08/06 11:55:10;;;;;;;1999.90;999.90;;;20.10;99.90;;;;;;5074598;28;20037;-74
2023/08/06 11:57:37;;;;;;;1999.90;999.90;;;20.10;99.90;;;;;;5073645;28;20037;-74